sensor_id;sensor_type;location;lat;lon;timestamp;pressure;altitude;pressure_sealevel;temperature;humidity
42247;BME280;27913;42.722;23.268;2022-07-10T00:00:01;94805.94;;;15.11;96.82
42247;BME280;27913;42.722;23.268;2022-07-10T00:05:02;94874.66;;;15.62;96.96
42247;BME280;27913;42.722;23.268;2022-07-10T00:07:28;94837.31;;;15.33;97.22
42247;BME280;27913;42.722;23.268;2022-07-10T00:09:54;94857.97;;;15.43;97.29
42247;BME280;27913;42.722;23.268;2022-07-10T00:12:19;94870.13;;;15.51;97.40
42247;BME280;27913;42.722;23.268;2022-07-10T00:14:45;94848.78;;;15.45;96.97
42247;BME280;27913;42.722;23.268;2022-07-10T00:17:10;94905.66;;;15.80;97.23
42247;BME280;27913;42.722;23.268;2022-07-10T00:19:36;94857.31;;;15.48;96.94
42247;BME280;27913;42.722;23.268;2022-07-10T00:22:02;94877.91;;;15.64;96.54
42247;BME280;27913;42.722;23.268;2022-07-10T00:24:27;94868.13;;;15.65;96.44
42247;BME280;27913;42.722;23.268;2022-07-10T00:26:53;94854.59;;;15.54;96.35
42247;BME280;27913;42.722;23.268;2022-07-10T00:29:18;94903.97;;;15.86;95.94
42247;BME280;27913;42.722;23.268;2022-07-10T00:31:44;94900.16;;;15.82;96.00
42247;BME280;27913;42.722;23.268;2022-07-10T00:34:10;94851.81;;;15.49;96.54
42247;BME280;27913;42.722;23.268;2022-07-10T00:36:36;94902.44;;;15.78;96.50
42247;BME280;27913;42.722;23.268;2022-07-10T00:39:01;94904.06;;;15.79;96.51
42247;BME280;27913;42.722;23.268;2022-07-10T00:41:27;94902.88;;;15.75;96.46
42247;BME280;27913;42.722;23.268;2022-07-10T00:44:00;94900.44;;;15.74;96.82
42247;BME280;27913;42.722;23.268;2022-07-10T00:46:28;94893.50;;;15.73;96.47
42247;BME280;27913;42.722;23.268;2022-07-10T00:48:54;94882.63;;;15.62;96.69
42247;BME280;27913;42.722;23.268;2022-07-10T00:51:24;94888.53;;;15.64;96.85
42247;BME280;27913;42.722;23.268;2022-07-10T00:53:49;94888.97;;;15.61;96.83
42247;BME280;27913;42.722;23.268;2022-07-10T00:56:21;94865.06;;;15.49;96.91
42247;BME280;27913;42.722;23.268;2022-07-10T00:58:48;94880.44;;;15.59;97.29
42247;BME280;27913;42.722;23.268;2022-07-10T01:01:14;94877.41;;;15.55;97.12
42247;BME280;27913;42.722;23.268;2022-07-10T01:03:40;94880.78;;;15.63;97.09
42247;BME280;27913;42.722;23.268;2022-07-10T01:06:06;94861.81;;;15.47;96.70
42247;BME280;27913;42.722;23.268;2022-07-10T01:08:33;94880.19;;;15.61;96.90
42247;BME280;27913;42.722;23.268;2022-07-10T01:10:59;94885.28;;;15.62;96.69
42247;BME280;27913;42.722;23.268;2022-07-10T01:13:26;94868.06;;;15.53;96.55
42247;BME280;27913;42.722;23.268;2022-07-10T01:15:52;94884.84;;;15.65;96.25
42247;BME280;27913;42.722;23.268;2022-07-10T01:18:18;94871.47;;;15.60;96.56
42247;BME280;27913;42.722;23.268;2022-07-10T01:20:44;94875.84;;;15.66;96.35
42247;BME280;27913;42.722;23.268;2022-07-10T01:23:10;94854.22;;;15.51;96.38
42247;BME280;27913;42.722;23.268;2022-07-10T01:25:35;94875.94;;;15.60;96.67
42247;BME280;27913;42.722;23.268;2022-07-10T01:28:01;94881.25;;;15.60;96.77
42247;BME280;27913;42.722;23.268;2022-07-10T01:30:26;94866.88;;;15.49;96.67
42247;BME280;27913;42.722;23.268;2022-07-10T01:32:52;94850.84;;;15.43;97.04
42247;BME280;27913;42.722;23.268;2022-07-10T01:35:18;94855.09;;;15.44;96.81
42247;BME280;27913;42.722;23.268;2022-07-10T01:37:44;94793.97;;;15.08;96.78
42247;BME280;27913;42.722;23.268;2022-07-10T01:40:10;94817.56;;;15.29;96.55
42247;BME280;27913;42.722;23.268;2022-07-10T01:42:37;94830.09;;;15.40;96.27
42247;BME280;27913;42.722;23.268;2022-07-10T01:45:05;94859.06;;;15.54;96.23
42247;BME280;27913;42.722;23.268;2022-07-10T01:47:30;94836.34;;;15.46;95.99
42247;BME280;27913;42.722;23.268;2022-07-10T01:49:56;94851.72;;;15.56;96.00
42247;BME280;27913;42.722;23.268;2022-07-10T01:52:22;94852.25;;;15.46;95.77
42247;BME280;27913;42.722;23.268;2022-07-10T01:54:48;94857.31;;;15.48;96.08
42247;BME280;27913;42.722;23.268;2022-07-10T01:57:14;94791.63;;;15.00;96.04
42247;BME280;27913;42.722;23.268;2022-07-10T01:59:40;94828.25;;;15.22;96.08
42247;BME280;27913;42.722;23.268;2022-07-10T02:02:05;94860.25;;;15.39;96.36
42247;BME280;27913;42.722;23.268;2022-07-10T02:04:31;94818.31;;;15.17;96.31
42247;BME280;27913;42.722;23.268;2022-07-10T02:07:18;94806.38;;;15.08;96.77
42247;BME280;27913;42.722;23.268;2022-07-10T02:09:46;94834.34;;;15.23;96.73
42247;BME280;27913;42.722;23.268;2022-07-10T02:12:13;94845.69;;;15.30;96.95
42247;BME280;27913;42.722;23.268;2022-07-10T02:14:39;94843.50;;;15.27;97.08
42247;BME280;27913;42.722;23.268;2022-07-10T02:17:06;94794.13;;;14.95;97.40
42247;BME280;27913;42.722;23.268;2022-07-10T02:19:32;94842.09;;;15.24;97.44
42247;BME280;27913;42.722;23.268;2022-07-10T02:21:58;94840.03;;;15.26;97.39
42247;BME280;27913;42.722;23.268;2022-07-10T02:24:23;94802.63;;;14.97;97.42
42247;BME280;27913;42.722;23.268;2022-07-10T02:26:49;94841.72;;;15.20;97.80
42247;BME280;27913;42.722;23.268;2022-07-10T02:29:15;94773.31;;;14.73;97.59
42247;BME280;27913;42.722;23.268;2022-07-10T02:31:41;94840.75;;;15.15;97.97
42247;BME280;27913;42.722;23.268;2022-07-10T02:34:07;94844.44;;;15.14;97.89
42247;BME280;27913;42.722;23.268;2022-07-10T02:36:34;94833.03;;;15.13;97.54
42247;BME280;27913;42.722;23.268;2022-07-10T02:39:00;94842.00;;;15.12;97.37
42247;BME280;27913;42.722;23.268;2022-07-10T02:41:26;94836.72;;;15.12;97.37
42247;BME280;27913;42.722;23.268;2022-07-10T02:43:52;94770.72;;;14.66;97.51
42247;BME280;27913;42.722;23.268;2022-07-10T02:46:17;94847.91;;;15.14;97.57
42247;BME280;27913;42.722;23.268;2022-07-10T02:48:43;94848.91;;;15.13;97.23
42247;BME280;27913;42.722;23.268;2022-07-10T02:51:08;94846.03;;;15.15;97.53
42247;BME280;27913;42.722;23.268;2022-07-10T02:53:34;94847.31;;;15.12;97.23
42247;BME280;27913;42.722;23.268;2022-07-10T02:55:59;94854.81;;;15.15;96.82
42247;BME280;27913;42.722;23.268;2022-07-10T02:58:25;94832.94;;;15.01;96.88
42247;BME280;27913;42.722;23.268;2022-07-10T03:00:51;94835.22;;;14.97;96.73
42247;BME280;27913;42.722;23.268;2022-07-10T03:03:16;94829.16;;;14.90;96.89
42247;BME280;27913;42.722;23.268;2022-07-10T03:05:45;94844.41;;;14.95;97.01
42247;BME280;27913;42.722;23.268;2022-07-10T03:08:11;94804.69;;;14.69;97.14
42247;BME280;27913;42.722;23.268;2022-07-10T03:10:37;94848.91;;;14.94;97.19
42247;BME280;27913;42.722;23.268;2022-07-10T03:13:03;94841.25;;;14.86;97.41
42247;BME280;27913;42.722;23.268;2022-07-10T03:15:28;94829.22;;;14.83;97.15
42247;BME280;27913;42.722;23.268;2022-07-10T03:17:54;94846.09;;;14.89;97.66
42247;BME280;27913;42.722;23.268;2022-07-10T03:20:20;94825.25;;;14.74;97.77
42247;BME280;27913;42.722;23.268;2022-07-10T03:22:45;94797.25;;;14.59;97.53
42247;BME280;27913;42.722;23.268;2022-07-10T03:25:11;94874.63;;;15.06;97.65
42247;BME280;27913;42.722;23.268;2022-07-10T03:27:37;94863.69;;;15.02;97.82
42247;BME280;27913;42.722;23.268;2022-07-10T03:30:03;94837.81;;;14.79;97.59
42247;BME280;27913;42.722;23.268;2022-07-10T03:32:29;94827.00;;;14.80;97.71
42247;BME280;27913;42.722;23.268;2022-07-10T03:34:55;94856.16;;;14.99;97.48
42247;BME280;27913;42.722;23.268;2022-07-10T03:37:20;94864.06;;;15.06;97.17
42247;BME280;27913;42.722;23.268;2022-07-10T03:39:46;94858.34;;;15.09;97.20
42247;BME280;27913;42.722;23.268;2022-07-10T03:42:12;94872.91;;;15.18;96.96
42247;BME280;27913;42.722;23.268;2022-07-10T03:44:37;94829.75;;;14.92;97.05
42247;BME280;27913;42.722;23.268;2022-07-10T03:47:03;94854.88;;;15.08;96.42
42247;BME280;27913;42.722;23.268;2022-07-10T03:49:29;94781.75;;;14.63;96.63
42247;BME280;27913;42.722;23.268;2022-07-10T03:51:58;94869.47;;;15.18;96.89
42247;BME280;27913;42.722;23.268;2022-07-10T03:54:24;94867.38;;;15.20;96.69
42247;BME280;27913;42.722;23.268;2022-07-10T03:56:49;94826.97;;;15.06;96.54
42247;BME280;27913;42.722;23.268;2022-07-10T03:59:34;94863.03;;;15.26;96.30
42247;BME280;27913;42.722;23.268;2022-07-10T04:02:00;94857.91;;;15.31;96.28
42247;BME280;27913;42.722;23.268;2022-07-10T04:04:25;94840.88;;;15.20;96.37
42247;BME280;27913;42.722;23.268;2022-07-10T04:06:51;94863.34;;;15.36;95.63
42247;BME280;27913;42.722;23.268;2022-07-10T04:09:16;94857.81;;;15.38;95.25
42247;BME280;27913;42.722;23.268;2022-07-10T04:11:42;94863.88;;;15.45;95.17
42247;BME280;27913;42.722;23.268;2022-07-10T04:14:07;94845.69;;;15.49;94.86
42247;BME280;27913;42.722;23.268;2022-07-10T04:16:33;94844.00;;;15.54;94.78
42247;BME280;27913;42.722;23.268;2022-07-10T04:18:58;94848.25;;;15.55;94.36
42247;BME280;27913;42.722;23.268;2022-07-10T04:21:24;94822.88;;;15.48;94.26
42247;BME280;27913;42.722;23.268;2022-07-10T04:23:50;94843.91;;;15.61;94.31
42247;BME280;27913;42.722;23.268;2022-07-10T04:26:15;94835.44;;;15.52;94.42
42247;BME280;27913;42.722;23.268;2022-07-10T04:28:41;94846.09;;;15.64;93.79
42247;BME280;27913;42.722;23.268;2022-07-10T04:31:06;94776.69;;;15.25;92.97
42247;BME280;27913;42.722;23.268;2022-07-10T04:33:32;94845.22;;;15.70;93.15
42247;BME280;27913;42.722;23.268;2022-07-10T04:35:57;94829.06;;;15.60;92.81
42247;BME280;27913;42.722;23.268;2022-07-10T04:38:22;94823.38;;;15.56;92.65
42247;BME280;27913;42.722;23.268;2022-07-10T04:40:48;94846.09;;;15.64;92.37
42247;BME280;27913;42.722;23.268;2022-07-10T04:43:13;94788.66;;;15.27;92.68
42247;BME280;27913;42.722;23.268;2022-07-10T04:45:39;94852.81;;;15.67;91.82
42247;BME280;27913;42.722;23.268;2022-07-10T04:48:05;94859.38;;;15.64;92.57
42247;BME280;27913;42.722;23.268;2022-07-10T04:50:30;94858.34;;;15.65;92.40
42247;BME280;27913;42.722;23.268;2022-07-10T04:52:56;94860.41;;;15.63;92.17
42247;BME280;27913;42.722;23.268;2022-07-10T04:55:22;94849.34;;;15.66;92.49
42247;BME280;27913;42.722;23.268;2022-07-10T04:57:47;94855.16;;;15.75;92.37
42247;BME280;27913;42.722;23.268;2022-07-10T05:00:13;94832.63;;;15.66;91.50
42247;BME280;27913;42.722;23.268;2022-07-10T05:02:39;94846.66;;;15.85;90.99
42247;BME280;27913;42.722;23.268;2022-07-10T05:05:05;94833.28;;;15.80;91.79
42247;BME280;27913;42.722;23.268;2022-07-10T05:07:30;94847.03;;;15.89;91.23
42247;BME280;27913;42.722;23.268;2022-07-10T05:09:56;94854.19;;;15.88;92.00
42247;BME280;27913;42.722;23.268;2022-07-10T05:12:21;94848.44;;;15.91;91.83
42247;BME280;27913;42.722;23.268;2022-07-10T05:14:47;94844.69;;;15.99;92.15
42247;BME280;27913;42.722;23.268;2022-07-10T05:17:12;94839.06;;;16.08;92.03
42247;BME280;27913;42.722;23.268;2022-07-10T05:19:38;94823.06;;;15.96;91.95
42247;BME280;27913;42.722;23.268;2022-07-10T05:22:03;94828.75;;;15.99;92.68
42247;BME280;27913;42.722;23.268;2022-07-10T05:24:29;94794.69;;;15.84;91.89
42247;BME280;27913;42.722;23.268;2022-07-10T05:26:55;94817.03;;;16.07;91.92
42247;BME280;27913;42.722;23.268;2022-07-10T05:29:20;94843.41;;;16.45;91.08
42247;BME280;27913;42.722;23.268;2022-07-10T05:31:46;94852.56;;;16.61;89.56
42247;BME280;27913;42.722;23.268;2022-07-10T05:34:11;94852.56;;;16.73;89.18
42247;BME280;27913;42.722;23.268;2022-07-10T05:36:36;94853.84;;;16.82;86.53
42247;BME280;27913;42.722;23.268;2022-07-10T05:39:02;94855.59;;;16.88;87.41
42247;BME280;27913;42.722;23.268;2022-07-10T05:41:28;94844.06;;;16.95;86.46
42247;BME280;27913;42.722;23.268;2022-07-10T05:43:53;94846.72;;;16.95;85.03
42247;BME280;27913;42.722;23.268;2022-07-10T05:46:19;94803.06;;;16.66;85.51
42247;BME280;27913;42.722;23.268;2022-07-10T05:48:44;94822.94;;;16.76;85.60
42247;BME280;27913;42.722;23.268;2022-07-10T05:51:10;94806.88;;;16.71;86.32
42247;BME280;27913;42.722;23.268;2022-07-10T05:53:37;94821.09;;;16.88;86.02
42247;BME280;27913;42.722;23.268;2022-07-10T05:56:03;94802.59;;;16.82;85.54
42247;BME280;27913;42.722;23.268;2022-07-10T05:58:28;94837.59;;;17.02;85.08
42247;BME280;27913;42.722;23.268;2022-07-10T06:00:55;94837.84;;;17.13;84.54
42247;BME280;27913;42.722;23.268;2022-07-10T06:03:21;94846.84;;;17.12;85.02
42247;BME280;27913;42.722;23.268;2022-07-10T06:05:47;94796.72;;;16.92;84.54
42247;BME280;27913;42.722;23.268;2022-07-10T06:08:13;94830.91;;;17.12;84.02
42247;BME280;27913;42.722;23.268;2022-07-10T06:10:39;94849.03;;;17.15;83.65
42247;BME280;27913;42.722;23.268;2022-07-10T06:13:06;94844.19;;;17.12;83.50
42247;BME280;27913;42.722;23.268;2022-07-10T06:15:31;94795.22;;;16.72;83.39
42247;BME280;27913;42.722;23.268;2022-07-10T06:17:57;94822.09;;;16.87;83.80
42247;BME280;27913;42.722;23.268;2022-07-10T06:20:25;94830.88;;;17.00;83.71
42247;BME280;27913;42.722;23.268;2022-07-10T06:22:51;94842.91;;;17.02;83.65
42247;BME280;27913;42.722;23.268;2022-07-10T06:25:16;94820.75;;;16.85;83.03
42247;BME280;27913;42.722;23.268;2022-07-10T06:27:42;94838.38;;;17.03;83.74
42247;BME280;27913;42.722;23.268;2022-07-10T06:30:08;94763.25;;;16.66;82.57
42247;BME280;27913;42.722;23.268;2022-07-10T06:32:34;94839.78;;;17.18;82.60
42247;BME280;27913;42.722;23.268;2022-07-10T06:34:59;94835.84;;;17.20;81.38
42247;BME280;27913;42.722;23.268;2022-07-10T06:37:25;94834.22;;;17.31;81.03
42247;BME280;27913;42.722;23.268;2022-07-10T06:39:50;94839.97;;;17.52;79.23
42247;BME280;27913;42.722;23.268;2022-07-10T06:42:16;94831.50;;;17.67;79.63
42247;BME280;27913;42.722;23.268;2022-07-10T06:44:42;94814.63;;;17.61;77.37
42247;BME280;27913;42.722;23.268;2022-07-10T06:47:08;94844.75;;;17.79;76.96
42247;BME280;27913;42.722;23.268;2022-07-10T06:49:54;94811.53;;;17.53;77.04
42247;BME280;27913;42.722;23.268;2022-07-10T06:52:20;94843.84;;;17.73;77.31
42247;BME280;27913;42.722;23.268;2022-07-10T06:54:46;94759.47;;;17.27;78.27
42247;BME280;27913;42.722;23.268;2022-07-10T06:57:12;94802.94;;;17.62;78.63
42247;BME280;27913;42.722;23.268;2022-07-10T06:59:38;94834.44;;;17.83;77.49
42247;BME280;27913;42.722;23.268;2022-07-10T07:02:04;94805.06;;;17.60;78.56
42247;BME280;27913;42.722;23.268;2022-07-10T07:04:30;94809.50;;;17.72;77.79
42247;BME280;27913;42.722;23.268;2022-07-10T07:06:55;94826.22;;;17.84;77.04
42247;BME280;27913;42.722;23.268;2022-07-10T07:09:21;94813.03;;;17.90;77.51
42247;BME280;27913;42.722;23.268;2022-07-10T07:11:46;94799.72;;;17.90;77.27
42247;BME280;27913;42.722;23.268;2022-07-10T07:14:12;94823.94;;;18.05;76.82
42247;BME280;27913;42.722;23.268;2022-07-10T07:16:38;94828.66;;;18.15;77.34
42247;BME280;27913;42.722;23.268;2022-07-10T07:19:07;94805.66;;;18.09;77.11
42247;BME280;27913;42.722;23.268;2022-07-10T07:21:33;94771.81;;;17.92;77.49
42247;BME280;27913;42.722;23.268;2022-07-10T07:24:17;94810.53;;;18.29;77.26
42247;BME280;27913;42.722;23.268;2022-07-10T07:26:44;94792.88;;;18.23;76.04
42247;BME280;27913;42.722;23.268;2022-07-10T07:29:13;94795.06;;;18.26;75.56
42247;BME280;27913;42.722;23.268;2022-07-10T07:31:38;94792.22;;;18.33;74.81
42247;BME280;27913;42.722;23.268;2022-07-10T07:34:04;94772.78;;;18.15;74.20
42247;BME280;27913;42.722;23.268;2022-07-10T07:36:30;94734.06;;;17.90;74.63
42247;BME280;27913;42.722;23.268;2022-07-10T07:38:56;94811.09;;;18.49;72.71
42247;BME280;27913;42.722;23.268;2022-07-10T07:41:21;94738.00;;;18.05;72.39
42247;BME280;27913;42.722;23.268;2022-07-10T07:43:48;94817.50;;;18.65;69.99
42247;BME280;27913;42.722;23.268;2022-07-10T07:46:14;94774.25;;;18.40;69.43
42247;BME280;27913;42.722;23.268;2022-07-10T07:48:39;94759.91;;;18.41;70.77
42247;BME280;27913;42.722;23.268;2022-07-10T07:51:05;94810.72;;;18.74;70.33
42247;BME280;27913;42.722;23.268;2022-07-10T07:53:30;94783.44;;;18.67;70.22
42247;BME280;27913;42.722;23.268;2022-07-10T07:55:56;94806.09;;;18.87;70.15
42247;BME280;27913;42.722;23.268;2022-07-10T07:58:21;94773.44;;;18.74;69.90
42247;BME280;27913;42.722;23.268;2022-07-10T08:00:47;94808.25;;;19.07;68.31
42247;BME280;27913;42.722;23.268;2022-07-10T08:03:12;94801.16;;;19.13;68.03
42247;BME280;27913;42.722;23.268;2022-07-10T08:05:38;94729.63;;;18.65;65.51
42247;BME280;27913;42.722;23.268;2022-07-10T08:08:03;94762.50;;;18.93;67.66
42247;BME280;27913;42.722;23.268;2022-07-10T08:10:34;94803.97;;;19.23;68.42
42247;BME280;27913;42.722;23.268;2022-07-10T08:13:00;94783.06;;;19.15;66.53
42247;BME280;27913;42.722;23.268;2022-07-10T08:15:25;94792.97;;;19.19;67.11
42247;BME280;27913;42.722;23.268;2022-07-10T08:17:52;94781.88;;;19.28;65.74
42247;BME280;27913;42.722;23.268;2022-07-10T08:20:18;94789.63;;;19.29;64.49
42247;BME280;27913;42.722;23.268;2022-07-10T08:22:44;94787.03;;;19.35;64.40
42247;BME280;27913;42.722;23.268;2022-07-10T08:25:10;94797.09;;;19.50;64.76
42247;BME280;27913;42.722;23.268;2022-07-10T08:27:36;94804.91;;;19.57;64.34
42247;BME280;27913;42.722;23.268;2022-07-10T08:30:02;94801.59;;;19.72;64.29
42247;BME280;27913;42.722;23.268;2022-07-10T08:32:28;94803.81;;;19.80;63.51
42247;BME280;27913;42.722;23.268;2022-07-10T08:34:54;94807.59;;;19.84;63.51
42247;BME280;27913;42.722;23.268;2022-07-10T08:37:20;94774.25;;;19.59;63.12
42247;BME280;27913;42.722;23.268;2022-07-10T08:39:46;94794.25;;;19.84;64.06
42247;BME280;27913;42.722;23.268;2022-07-10T08:42:12;94742.00;;;19.61;63.02
42247;BME280;27913;42.722;23.268;2022-07-10T08:44:38;94777.97;;;19.86;63.51
42247;BME280;27913;42.722;23.268;2022-07-10T08:47:04;94800.94;;;20.09;62.96
42247;BME280;27913;42.722;23.268;2022-07-10T08:49:31;94792.16;;;20.14;62.81
42247;BME280;27913;42.722;23.268;2022-07-10T08:52:05;94779.63;;;20.14;61.71
42247;BME280;27913;42.722;23.268;2022-07-10T08:54:32;94788.75;;;20.19;60.56
42247;BME280;27913;42.722;23.268;2022-07-10T08:56:59;94731.84;;;19.85;61.09
42247;BME280;27913;42.722;23.268;2022-07-10T08:59:25;94800.59;;;20.33;60.01
42247;BME280;27913;42.722;23.268;2022-07-10T09:01:51;94756.72;;;20.19;60.38
42247;BME280;27913;42.722;23.268;2022-07-10T09:04:23;94782.34;;;20.52;60.65
42247;BME280;27913;42.722;23.268;2022-07-10T09:06:50;94756.97;;;20.50;58.44
42247;BME280;27913;42.722;23.268;2022-07-10T09:09:17;94790.22;;;20.70;59.40
42247;BME280;27913;42.722;23.268;2022-07-10T09:11:43;94788.03;;;20.67;57.93
42247;BME280;27913;42.722;23.268;2022-07-10T09:14:10;94744.88;;;20.42;58.17
42247;BME280;27913;42.722;23.268;2022-07-10T09:16:42;94787.00;;;20.68;58.19
42247;BME280;27913;42.722;23.268;2022-07-10T09:19:28;94752.38;;;20.45;58.25
42247;BME280;27913;42.722;23.268;2022-07-10T09:22:05;94701.72;;;20.18;56.56
42247;BME280;27913;42.722;23.268;2022-07-10T09:24:49;94755.31;;;20.49;55.06
42247;BME280;27913;42.722;23.268;2022-07-10T09:27:15;94776.28;;;20.62;56.16
42247;BME280;27913;42.722;23.268;2022-07-10T09:29:59;94732.38;;;20.48;57.25
42247;BME280;27913;42.722;23.268;2022-07-10T09:32:25;94771.84;;;20.84;58.39
42247;BME280;27913;42.722;23.268;2022-07-10T09:34:51;94683.44;;;20.42;55.55
42247;BME280;27913;42.722;23.268;2022-07-10T09:37:39;94768.94;;;20.85;54.38
42247;BME280;27913;42.722;23.268;2022-07-10T09:40:05;94775.31;;;20.79;54.12
42247;BME280;27913;42.722;23.268;2022-07-10T09:42:42;94762.25;;;20.83;55.55
42247;BME280;27913;42.722;23.268;2022-07-10T09:50:37;94761.84;;;21.07;53.97
42247;BME280;27913;42.722;23.268;2022-07-10T09:53:06;94768.00;;;21.02;53.76
42247;BME280;27913;42.722;23.268;2022-07-10T09:55:35;94709.88;;;20.82;52.95
42247;BME280;27913;42.722;23.268;2022-07-10T09:58:01;94737.28;;;21.10;54.63
42247;BME280;27913;42.722;23.268;2022-07-10T10:00:39;94763.59;;;21.34;54.03
42247;BME280;27913;42.722;23.268;2022-07-10T10:03:11;94754.00;;;21.43;53.41
42247;BME280;27913;42.722;23.268;2022-07-10T10:05:40;94726.59;;;21.10;51.70
42247;BME280;27913;42.722;23.268;2022-07-10T10:08:25;94695.00;;;20.96;53.12
42247;BME280;27913;42.722;23.268;2022-07-10T10:10:51;94708.91;;;21.04;53.96
42247;BME280;27913;42.722;23.268;2022-07-10T10:13:19;94738.41;;;21.24;55.36
42247;BME280;27913;42.722;23.268;2022-07-10T10:15:49;94765.75;;;21.42;54.49
42247;BME280;27913;42.722;23.268;2022-07-10T10:18:18;94741.38;;;21.28;53.57
42247;BME280;27913;42.722;23.268;2022-07-10T10:20:45;94758.28;;;21.44;53.95
42247;BME280;27913;42.722;23.268;2022-07-10T10:23:17;94693.19;;;21.12;53.27
42247;BME280;27913;42.722;23.268;2022-07-10T10:25:43;94759.88;;;21.51;52.75
42247;BME280;27913;42.722;23.268;2022-07-10T10:28:10;94751.13;;;21.66;54.06
42247;BME280;27913;42.722;23.268;2022-07-10T10:30:45;94742.25;;;21.55;53.21
42247;BME280;27913;42.722;23.268;2022-07-10T10:35:59;94655.22;;;21.10;53.41
42247;BME280;27913;42.722;23.268;2022-07-10T10:41:39;94735.09;;;21.71;52.39
42247;BME280;27913;42.722;23.268;2022-07-10T10:49:19;94739.38;;;21.77;52.07
42247;BME280;27913;42.722;23.268;2022-07-10T10:52:04;94736.41;;;21.73;51.67
42247;BME280;27913;42.722;23.268;2022-07-10T10:57:22;94733.28;;;21.87;51.06
42247;BME280;27913;42.722;23.268;2022-07-10T10:59:51;94697.63;;;21.76;51.65
42247;BME280;27913;42.722;23.268;2022-07-10T11:02:28;94692.84;;;21.83;51.31
42247;BME280;27913;42.722;23.268;2022-07-10T11:07:54;94712.66;;;21.93;51.38
42247;BME280;27913;42.722;23.268;2022-07-10T11:10:31;94687.97;;;21.65;50.55
42247;BME280;27913;42.722;23.268;2022-07-10T11:13:10;94729.25;;;21.90;51.59
42247;BME280;27913;42.722;23.268;2022-07-10T11:15:44;94706.78;;;21.86;51.10
42247;BME280;27913;42.722;23.268;2022-07-10T11:18:12;94718.81;;;22.04;52.13
42247;BME280;27913;42.722;23.268;2022-07-10T11:20:43;94688.56;;;21.98;51.63
42247;BME280;27913;42.722;23.268;2022-07-10T11:23:30;94719.63;;;22.20;50.98
42247;BME280;27913;42.722;23.268;2022-07-10T11:26:05;94725.00;;;22.25;49.74
42247;BME280;27913;42.722;23.268;2022-07-10T11:28:50;94717.22;;;22.24;51.12
42247;BME280;27913;42.722;23.268;2022-07-10T11:31:19;94714.81;;;22.27;50.96
42247;BME280;27913;42.722;23.268;2022-07-10T11:33:47;94651.63;;;21.84;49.20
42247;BME280;27913;42.722;23.268;2022-07-10T11:36:19;94721.50;;;22.25;50.03
42247;BME280;27913;42.722;23.268;2022-07-10T11:38:45;94655.63;;;21.77;49.55
42247;BME280;27913;42.722;23.268;2022-07-10T11:41:18;94645.97;;;21.70;49.68
42247;BME280;27913;42.722;23.268;2022-07-10T11:43:55;94710.78;;;22.14;49.04
42247;BME280;27913;42.722;23.268;2022-07-10T11:46:25;94718.03;;;22.45;49.52
42247;BME280;27913;42.722;23.268;2022-07-10T11:48:52;94656.19;;;22.05;48.54
42247;BME280;27913;42.722;23.268;2022-07-10T11:53:58;94726.84;;;22.45;47.89
42247;BME280;27913;42.722;23.268;2022-07-10T11:56:25;94696.88;;;22.17;47.32
42247;BME280;27913;42.722;23.268;2022-07-10T11:58:59;94691.78;;;22.16;47.70
42247;BME280;27913;42.722;23.268;2022-07-10T12:01:25;94708.91;;;22.30;47.48
42247;BME280;27913;42.722;23.268;2022-07-10T12:03:56;94704.66;;;22.24;47.63
42247;BME280;27913;42.722;23.268;2022-07-10T12:06:23;94698.22;;;22.30;45.91
42247;BME280;27913;42.722;23.268;2022-07-10T12:08:49;94690.97;;;22.31;45.90
42247;BME280;27913;42.722;23.268;2022-07-10T12:11:16;94718.28;;;22.54;45.77
42247;BME280;27913;42.722;23.268;2022-07-10T12:13:43;94726.88;;;22.66;45.26
42247;BME280;27913;42.722;23.268;2022-07-10T12:16:09;94669.84;;;22.24;45.21
42247;BME280;27913;42.722;23.268;2022-07-10T12:18:35;94712.13;;;22.64;44.83
42247;BME280;27913;42.722;23.268;2022-07-10T12:21:01;94692.00;;;22.61;44.23
42247;BME280;27913;42.722;23.268;2022-07-10T12:23:28;94741.53;;;22.95;44.23
42247;BME280;27913;42.722;23.268;2022-07-10T12:25:54;94720.91;;;22.90;44.61
42247;BME280;27913;42.722;23.268;2022-07-10T12:28:21;94686.41;;;22.68;43.75
42247;BME280;27913;42.722;23.268;2022-07-10T12:30:48;94731.91;;;22.84;43.39
42247;BME280;27913;42.722;23.268;2022-07-10T12:33:21;94662.56;;;22.40;43.00
42247;BME280;27913;42.722;23.268;2022-07-10T12:35:54;94712.38;;;22.67;41.49
42247;BME280;27913;42.722;23.268;2022-07-10T12:38:25;94711.56;;;22.67;39.77
42247;BME280;27913;42.722;23.268;2022-07-10T12:41:06;94718.78;;;22.82;40.40
42247;BME280;27913;42.722;23.268;2022-07-10T12:43:32;94724.38;;;22.96;40.87
42247;BME280;27913;42.722;23.268;2022-07-10T12:46:18;94703.47;;;22.88;40.44
42247;BME280;27913;42.722;23.268;2022-07-10T12:49:02;94682.63;;;22.74;40.56
42247;BME280;27913;42.722;23.268;2022-07-10T12:51:42;94720.88;;;23.01;39.80
42247;BME280;27913;42.722;23.268;2022-07-10T12:54:08;94720.63;;;22.97;39.77
42247;BME280;27913;42.722;23.268;2022-07-10T12:56:37;94720.56;;;23.08;37.49
42247;BME280;27913;42.722;23.268;2022-07-10T12:59:13;94727.03;;;23.01;36.93
42247;BME280;27913;42.722;23.268;2022-07-10T13:01:43;94698.63;;;22.95;37.38
42247;BME280;27913;42.722;23.268;2022-07-10T13:04:09;94731.75;;;23.31;37.70
42247;BME280;27913;42.722;23.268;2022-07-10T13:06:36;94703.16;;;23.10;35.39
42247;BME280;27913;42.722;23.268;2022-07-10T13:09:03;94697.03;;;22.94;37.74
42247;BME280;27913;42.722;23.268;2022-07-10T13:11:42;94724.81;;;23.29;36.93
42247;BME280;27913;42.722;23.268;2022-07-10T13:14:08;94693.66;;;23.34;37.32
42247;BME280;27913;42.722;23.268;2022-07-10T13:16:33;94661.34;;;22.99;36.31
42247;BME280;27913;42.722;23.268;2022-07-10T13:18:59;94716.97;;;23.44;36.93